createdAt,value
2018-10-16T00:01:25.825Z,3.98
2018-10-16T00:06:28.924Z,4.10
2018-10-16T00:11:32.028Z,4.70
2018-10-16T00:16:35.132Z,3.60
2018-10-16T00:21:38.236Z,2.57
2018-10-16T00:26:41.348Z,4.20
2018-10-16T00:31:44.573Z,3.63
2018-10-16T00:36:47.679Z,4.13
2018-10-16T00:41:54.740Z,3.80
2018-10-16T00:46:57.844Z,4.13
2018-10-16T00:52:00.961Z,3.47
2018-10-16T00:57:04.096Z,3.30
2018-10-16T01:02:07.196Z,4.13
2018-10-16T01:07:10.308Z,5.10
2018-10-16T01:12:13.424Z,4.83
2018-10-16T01:17:16.535Z,3.73
2018-10-16T01:22:19.647Z,4.08
2018-10-16T01:27:22.754Z,3.43
2018-10-16T01:32:25.862Z,5.23
2018-10-16T01:37:28.963Z,3.63
2018-10-16T01:42:32.078Z,3.97
2018-10-16T01:47:35.177Z,4.50
2018-10-16T01:52:38.292Z,4.80
2018-10-16T01:57:41.392Z,3.83
2018-10-16T02:02:44.577Z,3.87
2018-10-16T02:07:47.602Z,3.80
2018-10-16T02:12:50.704Z,3.67
2018-10-16T02:17:53.825Z,3.70
2018-10-16T02:22:56.932Z,4.20
2018-10-16T02:28:00.046Z,4.20
2018-10-16T02:33:03.158Z,4.40
2018-10-16T02:38:06.264Z,4.10
2018-10-16T02:43:09.365Z,3.87
2018-10-16T02:48:12.464Z,4.10
2018-10-16T02:53:15.568Z,3.33
2018-10-16T02:58:18.672Z,4.07
2018-10-16T03:03:21.778Z,4.10
2018-10-16T03:08:24.889Z,4.60
2018-10-16T03:13:28.011Z,3.57
2018-10-16T03:18:31.107Z,3.80
2018-10-16T03:23:34.212Z,3.47
2018-10-16T03:28:37.328Z,3.63
2018-10-16T03:33:40.441Z,5.07
2018-10-16T03:38:43.546Z,5.10
2018-10-16T03:43:56.837Z,4.10
2018-10-16T03:48:59.936Z,3.80
2018-10-16T03:54:03.037Z,3.37
2018-10-16T03:59:06.168Z,3.80
2018-10-16T04:04:09.269Z,3.87
2018-10-16T04:09:12.368Z,5.27
2018-10-16T04:14:15.473Z,5.07
2018-10-16T04:19:18.583Z,3.63
2018-10-16T04:24:21.681Z,3.53
2018-10-16T04:29:24.786Z,2.60
2018-10-16T04:34:27.898Z,3.73
2018-10-16T04:39:33.878Z,4.53
2018-10-16T04:44:36.969Z,3.67
2018-10-16T04:49:40.068Z,4.00
2018-10-16T04:54:43.171Z,4.23
2018-10-16T04:59:46.275Z,3.60
2018-10-16T05:04:49.374Z,3.50
2018-10-16T05:09:52.469Z,4.40
2018-10-16T05:14:55.575Z,4.10
2018-10-16T05:19:58.687Z,4.43
2018-10-16T05:25:02.373Z,3.93
2018-10-16T05:30:05.796Z,4.03
2018-10-16T05:35:09.268Z,4.20
2018-10-16T05:40:12.373Z,6.00
2018-10-16T05:45:15.476Z,4.50
2018-10-16T05:50:18.584Z,4.17
2018-10-16T05:55:21.691Z,5.43
2018-10-16T06:00:34.988Z,3.57
2018-10-16T06:05:38.220Z,4.30
2018-10-16T06:10:42.193Z,3.80
2018-10-16T06:15:45.271Z,4.40
2018-10-16T06:20:48.379Z,3.35
2018-10-16T06:25:51.488Z,3.97
2018-10-16T06:30:54.625Z,4.10
2018-10-16T06:35:57.728Z,3.87
2018-10-16T06:41:00.951Z,4.70
2018-10-16T06:46:04.005Z,4.40
2018-10-16T06:51:07.105Z,5.10
2018-10-16T06:56:10.228Z,3.63
2018-10-16T07:01:13.333Z,4.85
2018-10-16T07:06:16.500Z,4.67
2018-10-16T07:11:19.606Z,5.50
2018-10-16T07:16:22.712Z,4.47
2018-10-16T07:21:25.854Z,5.50
2018-10-16T07:26:28.936Z,5.40
2018-10-16T07:31:32.045Z,5.30
2018-10-16T07:36:35.181Z,5.37
2018-10-16T07:41:38.700Z,5.37
2018-10-16T07:46:41.803Z,6.20
2018-10-16T07:51:44.916Z,5.67
2018-10-16T07:56:48.088Z,4.70
2018-10-16T08:01:51.189Z,6.00
2018-10-16T08:06:54.297Z,5.63
2018-10-16T08:11:57.404Z,5.80
2018-10-16T08:17:00.539Z,6.87
2018-10-16T08:22:03.629Z,4.93
2018-10-16T08:27:06.741Z,7.17
2018-10-16T08:32:09.848Z,6.77
2018-10-16T08:37:19.424Z,5.90
2018-10-16T08:42:36.420Z,6.27
2018-10-16T08:47:50.958Z,5.10
2018-10-16T08:52:54.078Z,6.67
2018-10-16T08:57:57.181Z,5.57
2018-10-16T09:03:00.299Z,6.63
2018-10-16T09:08:03.415Z,6.00
2018-10-16T09:13:06.564Z,6.20
2018-10-16T09:18:09.668Z,6.55
2018-10-16T09:23:12.772Z,5.50
2018-10-16T09:28:15.889Z,6.80
2018-10-16T09:33:19.128Z,7.58
2018-10-16T09:38:22.200Z,5.78
2018-10-16T09:43:25.314Z,7.30
2018-10-16T09:48:28.435Z,7.23
2018-10-16T09:53:31.576Z,7.13
2018-10-16T09:58:34.688Z,7.23
2018-10-16T10:03:37.793Z,8.30
2018-10-16T10:08:41.012Z,6.77
2018-10-16T10:13:44.169Z,6.77
2018-10-16T10:18:47.336Z,5.77
2018-10-16T10:23:50.505Z,7.37
2018-10-16T10:28:53.615Z,7.10
2018-10-16T10:33:56.817Z,6.03
2018-10-16T10:38:59.932Z,6.03
2018-10-16T10:44:03.104Z,7.33
2018-10-16T10:49:06.225Z,7.20
2018-10-16T10:54:09.340Z,7.00
2018-10-16T10:59:12.445Z,7.35
2018-10-16T11:04:15.561Z,6.15
2018-10-16T11:09:18.685Z,7.10
2018-10-16T11:14:22.272Z,6.93
2018-10-16T11:19:25.469Z,6.90
2018-10-16T11:24:28.497Z,8.47
2018-10-16T11:29:31.604Z,7.27
2018-10-16T11:34:34.713Z,7.60
2018-10-16T11:39:37.820Z,7.60
2018-10-16T11:44:40.933Z,6.90
2018-10-16T11:49:44.037Z,6.47
2018-10-16T11:54:47.157Z,7.00
2018-10-16T11:59:50.289Z,7.90
2018-10-16T12:04:53.481Z,7.27
2018-10-16T12:09:56.588Z,7.00
2018-10-16T12:14:59.705Z,7.23
2018-10-16T12:20:06.180Z,7.10
2018-10-16T12:25:09.279Z,6.90
2018-10-16T12:30:12.338Z,6.77
2018-10-16T12:35:15.456Z,6.80
2018-10-16T12:40:18.719Z,5.95
2018-10-16T12:45:21.689Z,7.17
2018-10-16T12:50:24.852Z,5.80
2018-10-16T12:55:27.912Z,6.70
2018-10-16T13:00:31.034Z,5.73
2018-10-16T13:05:34.141Z,6.57
2018-10-16T13:10:37.289Z,6.10
2018-10-16T13:15:40.393Z,5.57
2018-10-16T13:20:43.508Z,5.07
2018-10-16T13:25:46.629Z,6.50
2018-10-16T13:30:49.740Z,6.03
2018-10-16T13:35:52.852Z,5.30
2018-10-16T13:40:55.956Z,5.70
2018-10-16T13:45:59.073Z,6.20
2018-10-16T13:51:02.205Z,6.77
2018-10-16T13:56:06.027Z,5.90
2018-10-16T14:01:09.105Z,4.97
2018-10-16T14:06:12.225Z,6.20
2018-10-16T14:11:15.337Z,6.37
2018-10-16T14:16:18.458Z,5.65
2018-10-16T14:21:21.561Z,5.20
2018-10-16T14:26:24.694Z,5.60
2018-10-16T14:31:27.792Z,4.97
2018-10-16T14:36:30.901Z,5.63
2018-10-16T14:41:34.010Z,5.50
2018-10-16T14:46:37.145Z,4.70
2018-10-16T14:51:40.260Z,5.50
2018-10-16T14:56:43.380Z,5.90
2018-10-16T15:01:46.492Z,5.70
2018-10-16T15:06:49.605Z,5.00
2018-10-16T15:11:52.713Z,5.40
2018-10-16T15:16:55.833Z,4.73
2018-10-16T15:21:58.961Z,5.87
2018-10-16T15:27:02.041Z,5.10
2018-10-16T15:32:05.701Z,4.10
2018-10-16T15:37:08.749Z,4.80
2018-10-16T15:42:11.908Z,4.22
2018-10-16T15:47:14.981Z,4.30
2018-10-16T15:52:18.076Z,5.17
2018-10-16T15:57:21.190Z,6.05
2018-10-16T16:02:24.345Z,5.73
2018-10-16T16:12:39.120Z,4.57
2018-10-16T16:17:42.580Z,5.53
2018-10-16T16:22:45.696Z,5.53
2018-10-16T16:27:48.812Z,5.20
2018-10-16T16:32:51.913Z,5.70
2018-10-16T16:37:55.038Z,4.63
2018-10-16T16:42:58.150Z,5.47
2018-10-16T16:48:01.253Z,5.00
2018-10-16T16:53:04.385Z,4.47
2018-10-16T16:58:07.524Z,4.80
2018-10-16T17:03:10.587Z,5.92
2018-10-16T17:08:13.739Z,4.60
2018-10-16T17:13:16.807Z,5.07
2018-10-16T17:18:19.968Z,4.67
2018-10-16T17:23:23.033Z,6.33
2018-10-16T17:28:26.157Z,6.47
2018-10-16T17:33:29.288Z,5.07
2018-10-16T17:38:32.716Z,4.13
2018-10-16T17:43:35.865Z,4.67
2018-10-16T17:48:38.973Z,5.07
2018-10-16T17:53:42.082Z,5.00
2018-10-16T17:58:45.196Z,5.27
2018-10-16T18:03:48.359Z,6.10
2018-10-16T18:08:51.486Z,5.20
2018-10-16T18:13:54.589Z,4.57
2018-10-16T18:18:57.692Z,5.20
2018-10-16T18:24:00.801Z,5.53
2018-10-16T18:29:03.936Z,6.00
2018-10-16T18:34:07.052Z,5.60
2018-10-16T18:39:10.236Z,6.25
2018-10-16T18:44:13.345Z,3.90
2018-10-16T18:49:16.449Z,4.40
2018-10-16T18:54:19.602Z,5.37
2018-10-16T18:59:22.768Z,4.93
2018-10-16T19:04:25.881Z,4.87
2018-10-16T19:09:29.020Z,5.43
2018-10-16T19:14:32.135Z,5.13
2018-10-16T19:19:35.243Z,4.60
2018-10-16T19:24:38.353Z,4.93
2018-10-16T19:29:41.456Z,6.33
2018-10-16T19:34:44.565Z,5.70
2018-10-16T19:39:47.702Z,5.07
2018-10-16T19:44:50.829Z,4.67
2018-10-16T19:49:53.933Z,6.83
2018-10-16T19:54:57.040Z,5.27
2018-10-16T20:00:00.419Z,4.73
2018-10-16T20:05:03.640Z,5.60
2018-10-16T20:10:07.825Z,5.23
2018-10-16T20:15:11.958Z,4.83
2018-10-16T20:20:15.096Z,4.47
2018-10-16T20:25:18.205Z,5.50
2018-10-16T20:30:21.311Z,4.95
2018-10-16T20:35:24.422Z,5.00
2018-10-16T20:40:27.549Z,5.00
2018-10-16T20:45:30.658Z,5.13
2018-10-16T20:50:33.756Z,5.60
2018-10-16T20:55:36.864Z,4.80
2018-10-16T21:00:40.405Z,5.27
2018-10-16T21:05:43.670Z,5.90
2018-10-16T21:10:46.732Z,5.50
2018-10-16T21:15:49.877Z,5.57
2018-10-16T21:20:53.019Z,5.87
2018-10-16T21:25:56.147Z,4.87
2018-10-16T21:30:59.318Z,5.83
2018-10-16T21:36:02.443Z,5.03
2018-10-16T21:41:05.807Z,6.00
2018-10-16T21:46:08.870Z,4.80
2018-10-16T21:51:12.150Z,6.40
2018-10-16T21:56:15.319Z,5.17
2018-10-16T22:01:18.458Z,5.10
2018-10-16T22:06:21.606Z,5.75
2018-10-16T22:11:25.066Z,4.23
2018-10-16T22:16:28.173Z,4.77
2018-10-16T22:21:31.276Z,4.47
2018-10-16T22:26:34.384Z,4.47
2018-10-16T22:31:37.497Z,5.13
2018-10-16T22:36:40.588Z,6.20
2018-10-16T22:41:43.696Z,5.87
2018-10-16T22:46:46.860Z,5.43
2018-10-16T22:51:50.056Z,4.83
2018-10-16T22:56:53.180Z,5.70
2018-10-16T23:01:56.356Z,6.10
2018-10-16T23:06:59.528Z,4.13
2018-10-16T23:12:02.651Z,5.57
2018-10-16T23:17:05.867Z,5.30
2018-10-16T23:22:08.970Z,5.33
2018-10-16T23:27:12.106Z,4.65
2018-10-16T23:32:15.242Z,4.58
2018-10-16T23:37:18.383Z,5.65
2018-10-16T23:42:21.522Z,5.43
2018-10-16T23:47:24.662Z,4.70
2018-10-16T23:52:27.802Z,5.30
2018-10-16T23:57:30.939Z,5.83
